Time;durP1;ratioP1;P1;durP2;ratioP2;P2;SDS_P1;SDS_P2;PMS_P1;PMS_P2;Temp;Humidity;BMP_temperature;BMP_pressure;BME280_temperature;BME280_humidity;BME280_pressure;Samples;Min_cycle;Max_cycle;Signal;HPM_P1;HPM_P2
2020/12/11 00:01:58;;;;;;;29.70;17.20;;;2.10;99.90;;;;;;4173104;28;20134;-69
2020/12/11 00:03:59;;;;;;;26.23;15.13;;;2.10;99.90;;;;;;4161672;28;20103;-69
2020/12/11 00:06:00;;;;;;;28.35;16.65;;;2.10;99.90;;;;;;4173711;28;20105;-69
2020/12/11 00:08:00;;;;;;;27.40;16.52;;;2.10;99.90;;;;;;4168097;28;20434;-69
2020/12/11 00:10:02;;;;;;;31.10;17.13;;;2.10;99.90;;;;;;4169164;28;20037;-69
2020/12/11 00:12:03;;;;;;;28.33;16.42;;;2.10;99.90;;;;;;4176233;28;20025;-69
2020/12/11 00:14:03;;;;;;;28.38;16.75;;;2.10;99.90;;;;;;4172832;28;20155;-69
2020/12/11 00:16:05;;;;;;;26.70;16.15;;;2.10;99.90;;;;;;4174759;28;20027;-69
2020/12/11 00:18:06;;;;;;;26.13;15.88;;;2.20;99.90;;;;;;4162197;28;20501;-69
2020/12/11 00:20:06;;;;;;;27.40;15.82;;;2.10;99.90;;;;;;4175032;28;20060;-69
2020/12/11 00:22:07;;;;;;;30.00;16.75;;;2.10;99.90;;;;;;4160657;28;20393;-69
2020/12/11 00:24:11;;;;;;;27.40;16.63;;;2.10;99.90;;;;;;4175384;28;20033;-69
2020/12/11 00:26:14;;;;;;;26.30;15.88;;;2.10;99.90;;;;;;4161390;28;20377;-69
2020/12/11 00:28:15;;;;;;;27.40;16.05;;;2.20;99.90;;;;;;4162838;28;20038;-69
2020/12/11 00:30:16;;;;;;;25.08;15.35;;;2.10;99.90;;;;;;4170701;28;20091;-69
2020/12/11 00:32:17;;;;;;;26.63;15.32;;;2.20;99.90;;;;;;4164957;28;20033;-69
2020/12/11 00:34:17;;;;;;;27.20;15.63;;;2.20;99.90;;;;;;4168479;28;20037;-69
2020/12/11 00:36:18;;;;;;;26.25;14.85;;;2.20;99.90;;;;;;4173268;28;20034;-69
2020/12/11 00:38:20;;;;;;;26.67;14.88;;;2.20;99.90;;;;;;4161989;28;20120;-69
2020/12/11 00:40:20;;;;;;;30.50;16.80;;;2.20;99.90;;;;;;4175658;28;20040;-69
2020/12/11 00:42:21;;;;;;;25.42;15.45;;;2.20;99.90;;;;;;4164827;28;20455;-69
2020/12/11 00:44:22;;;;;;;26.13;15.85;;;2.20;99.90;;;;;;4171283;28;20036;-69
2020/12/11 00:46:24;;;;;;;28.17;15.88;;;2.30;99.90;;;;;;4167260;28;20034;-69
2020/12/11 00:48:25;;;;;;;;;;;2.30;99.90;;;;;;4161522;28;20377;-69
2020/12/11 00:50:25;;;;;;;27.17;15.88;;;2.30;99.90;;;;;;4177204;28;19909;-69
2020/12/11 00:52:26;;;;;;;24.67;15.73;;;2.30;99.90;;;;;;4172828;28;20029;-69
2020/12/11 00:54:27;;;;;;;26.33;15.00;;;2.30;99.90;;;;;;4173284;28;20056;-69
2020/12/11 00:56:28;;;;;;;26.50;15.93;;;2.30;99.90;;;;;;4172922;28;20501;-69
2020/12/11 00:58:28;;;;;;;23.55;14.55;;;2.30;99.90;;;;;;4160228;28;20036;-69
2020/12/11 01:00:30;;;;;;;22.10;13.48;;;2.40;99.90;;;;;;4141453;28;20034;-69
2020/12/11 01:02:31;;;;;;;25.23;15.25;;;2.40;99.90;;;;;;4171047;28;20067;-69
2020/12/11 01:04:31;;;;;;;24.52;14.35;;;2.40;99.90;;;;;;4163808;28;20075;-69
2020/12/11 01:06:32;;;;;;;25.30;14.98;;;2.40;99.90;;;;;;4165928;28;20036;-69
2020/12/11 01:08:33;;;;;;;26.48;14.55;;;2.40;99.90;;;;;;4165529;28;20160;-69
2020/12/11 01:10:34;;;;;;;25.63;14.40;;;2.40;99.90;;;;;;4176739;28;20035;-69
2020/12/11 01:12:34;;;;;;;24.75;14.80;;;2.40;99.90;;;;;;4163155;28;20620;-69
2020/12/11 01:14:35;;;;;;;27.50;15.07;;;2.40;99.90;;;;;;4170728;28;20380;-69
2020/12/11 01:16:36;;;;;;;21.08;13.60;;;2.40;99.90;;;;;;4169659;28;20575;-69
2020/12/11 01:18:37;;;;;;;23.77;14.43;;;2.40;99.90;;;;;;4163750;28;20037;-69
2020/12/11 01:20:37;;;;;;;24.15;13.95;;;2.40;99.90;;;;;;4175026;28;20032;-69
2020/12/11 01:22:38;;;;;;;23.20;13.40;;;2.40;99.90;;;;;;4169575;28;20037;-69
2020/12/11 01:24:38;;;;;;;22.27;13.82;;;2.50;99.90;;;;;;4164619;28;20445;-69
2020/12/11 01:26:47;;;;;;;23.30;14.30;;;2.40;99.90;;;;;;4168786;28;20030;-69
2020/12/11 01:28:48;;;;;;;21.60;13.65;;;2.50;99.90;;;;;;4159835;28;20037;-69
2020/12/11 01:30:48;;;;;;;21.52;12.85;;;2.50;99.90;;;;;;4175503;28;20029;-69
2020/12/11 01:32:49;;;;;;;25.20;14.32;;;2.50;99.90;;;;;;4171325;28;20036;-69
2020/12/11 01:34:49;;;;;;;23.88;14.88;;;2.50;99.90;;;;;;4167727;28;20146;-69
2020/12/11 01:36:50;;;;;;;22.23;13.18;;;2.50;99.90;;;;;;4176647;28;20029;-69
2020/12/11 01:38:51;;;;;;;25.38;13.98;;;2.50;99.90;;;;;;4160074;28;20029;-69
2020/12/11 01:40:51;;;;;;;21.42;13.10;;;2.50;99.90;;;;;;4175543;28;20045;-69
2020/12/11 01:42:52;;;;;;;19.67;13.05;;;2.50;99.90;;;;;;4166988;28;20501;-69
2020/12/11 01:44:53;;;;;;;21.90;12.63;;;2.40;99.90;;;;;;4167474;28;20496;-68
2020/12/11 01:46:57;;;;;;;23.50;13.30;;;2.40;99.90;;;;;;4171633;28;20040;-69
2020/12/11 01:48:58;;;;;;;20.52;13.30;;;2.40;99.90;;;;;;4159068;28;20057;-69
2020/12/11 01:50:59;;;;;;;23.05;13.23;;;2.40;99.90;;;;;;4159867;28;20044;-68
2020/12/11 01:53:00;;;;;;;23.17;13.65;;;2.50;99.90;;;;;;4167658;28;20060;-69
2020/12/11 01:55:01;;;;;;;20.58;13.25;;;2.40;99.90;;;;;;4168570;28;20029;-69
2020/12/11 01:57:03;;;;;;;20.45;13.20;;;2.40;99.90;;;;;;4171089;28;20632;-69
2020/12/11 01:59:07;;;;;;;;;;;2.40;99.90;;;;;;4159365;28;20042;-69
2020/12/11 02:01:09;;;;;;;22.08;13.35;;;2.50;99.90;;;;;;4175828;28;19913;-69
2020/12/11 02:03:11;;;;;;;19.23;11.85;;;2.40;99.90;;;;;;4166165;28;20041;-69
2020/12/11 02:05:11;;;;;;;21.15;12.98;;;2.50;99.90;;;;;;4168445;28;20561;-69
2020/12/11 02:07:12;;;;;;;20.08;12.48;;;2.40;99.90;;;;;;4167144;28;20033;-69
2020/12/11 02:09:13;;;;;;;19.73;12.57;;;2.50;99.90;;;;;;4167560;28;20413;-69
2020/12/11 02:11:20;;;;;;;24.13;14.65;;;2.50;99.90;;;;;;4166088;28;20045;-69
2020/12/11 02:13:20;;;;;;;22.92;13.45;;;2.50;99.90;;;;;;4141635;28;20034;-69
2020/12/11 02:15:21;;;;;;;23.15;13.43;;;2.50;99.90;;;;;;4170529;28;20477;-68
2020/12/11 02:17:26;;;;;;;19.63;13.05;;;2.60;99.90;;;;;;4167615;28;20165;-69
2020/12/11 02:19:29;;;;;;;21.35;12.70;;;2.50;99.90;;;;;;4143464;28;20025;-69
2020/12/11 02:21:32;;;;;;;19.95;12.80;;;2.50;99.90;;;;;;4165658;28;20041;-69
2020/12/11 02:23:32;;;;;;;22.88;13.55;;;2.50;99.90;;;;;;4156182;28;20508;-69
2020/12/11 02:25:33;;;;;;;21.10;14.27;;;2.60;99.90;;;;;;4172650;28;20499;-69
2020/12/11 02:27:34;;;;;;;21.00;13.77;;;2.50;99.90;;;;;;4162488;28;20038;-69
2020/12/11 02:29:35;;;;;;;21.98;13.20;;;2.50;99.90;;;;;;4151220;28;20610;-69
2020/12/11 02:31:36;;;;;;;20.45;13.63;;;2.50;99.90;;;;;;4168535;28;20045;-69
2020/12/11 02:33:36;;;;;;;20.90;13.75;;;2.50;99.90;;;;;;4156361;28;20034;-69
2020/12/11 02:35:41;;;;;;;21.55;13.85;;;2.50;99.90;;;;;;4164802;28;20029;-69
2020/12/11 02:37:42;;;;;;;21.90;13.13;;;2.50;99.90;;;;;;4167457;28;20408;-69
2020/12/11 02:39:42;;;;;;;24.48;14.55;;;2.40;99.90;;;;;;4151630;28;20113;-68
2020/12/11 02:41:47;;;;;;;20.40;13.27;;;2.40;99.90;;;;;;4143117;28;20045;-68
2020/12/11 02:43:48;;;;;;;23.42;13.93;;;2.40;99.90;;;;;;4154111;28;20041;-69
2020/12/11 02:45:51;;;;;;;21.85;13.13;;;2.40;99.90;;;;;;4156154;28;20048;-69
2020/12/11 02:47:51;;;;;;;22.73;14.02;;;2.40;99.90;;;;;;4156548;28;20040;-69
2020/12/11 02:49:52;;;;;;;21.92;13.55;;;2.40;99.90;;;;;;4156162;28;20033;-69
2020/12/11 02:51:53;;;;;;;24.08;14.02;;;2.40;99.90;;;;;;4157640;28;20421;-68
2020/12/11 02:53:53;;;;;;;22.00;13.40;;;2.40;99.90;;;;;;4155186;28;20045;-69
2020/12/11 02:55:57;;;;;;;22.15;13.90;;;2.40;99.90;;;;;;4156273;28;20034;-69
2020/12/11 02:57:57;;;;;;;20.67;13.00;;;2.30;99.90;;;;;;4154032;28;20044;-69
2020/12/11 02:59:58;;;;;;;19.73;12.07;;;2.40;99.90;;;;;;4154434;28;20034;-69
2020/12/11 03:02:00;;;;;;;20.90;13.27;;;2.40;99.90;;;;;;4155515;28;20053;-69
2020/12/11 03:04:00;;;;;;;20.98;13.52;;;2.50;99.90;;;;;;4160843;28;20026;-69
2020/12/11 03:06:01;;;;;;;22.75;14.13;;;2.40;99.90;;;;;;4163686;28;20026;-69
2020/12/11 03:08:02;;;;;;;22.38;13.80;;;2.40;99.90;;;;;;4174281;28;20025;-69
2020/12/11 03:10:04;;;;;;;22.83;13.00;;;2.40;99.90;;;;;;4160336;28;20034;-69
2020/12/11 03:12:05;;;;;;;25.77;15.00;;;2.40;99.90;;;;;;4162889;28;20100;-69
2020/12/11 03:14:05;;;;;;;22.67;14.20;;;2.40;99.90;;;;;;4166685;28;20049;-68
2020/12/11 03:16:08;;;;;;;22.88;13.60;;;2.30;99.90;;;;;;4167386;28;20053;-68
2020/12/11 03:18:09;;;;;;;19.30;13.00;;;2.30;99.90;;;;;;4167670;28;20033;-69
2020/12/11 03:20:10;;;;;;;22.02;13.93;;;2.30;99.90;;;;;;4164552;28;20030;-69
2020/12/11 03:22:10;;;;;;;24.08;14.23;;;2.30;99.90;;;;;;4162929;28;20551;-69
2020/12/11 03:24:12;;;;;;;21.65;13.45;;;2.40;99.90;;;;;;4153872;28;20056;-69
2020/12/11 03:26:13;;;;;;;23.38;14.48;;;2.40;99.90;;;;;;4168644;28;20033;-69
2020/12/11 03:28:13;;;;;;;21.05;13.40;;;2.40;99.90;;;;;;4168085;28;20038;-69
2020/12/11 03:30:14;;;;;;;19.75;12.38;;;2.40;99.90;;;;;;4164152;28;20167;-69
2020/12/11 03:32:15;;;;;;;18.08;12.02;;;2.40;99.90;;;;;;4167601;28;20416;-69
2020/12/11 03:34:15;;;;;;;21.40;13.13;;;2.40;99.90;;;;;;4167864;28;20497;-69
2020/12/11 03:36:19;;;;;;;19.27;13.00;;;2.40;99.90;;;;;;4166922;28;20481;-69
2020/12/11 03:38:20;;;;;;;19.05;12.65;;;2.40;99.90;;;;;;4169443;28;20037;-69
2020/12/11 03:40:21;;;;;;;21.08;13.52;;;2.40;99.90;;;;;;4163202;28;20022;-68
2020/12/11 03:42:21;;;;;;;20.15;12.40;;;2.40;99.90;;;;;;4167382;28;20044;-68
2020/12/11 03:44:22;;;;;;;21.55;13.00;;;2.40;99.90;;;;;;4162690;28;20080;-69
2020/12/11 03:46:22;;;;;;;19.33;13.00;;;2.40;99.90;;;;;;4160042;28;20039;-69
2020/12/11 03:48:23;;;;;;;21.10;13.27;;;2.40;99.90;;;;;;4170892;28;20029;-69
2020/12/11 03:50:24;;;;;;;19.48;12.45;;;2.40;99.90;;;;;;4137780;28;20129;-68
2020/12/11 03:52:29;;;;;;;19.30;11.75;;;2.50;99.90;;;;;;4172263;28;20377;-68
2020/12/11 03:54:29;;;;;;;19.85;12.75;;;2.50;99.90;;;;;;4172998;28;20041;-69
2020/12/11 03:56:30;;;;;;;22.70;13.07;;;2.50;99.90;;;;;;4166344;28;20388;-69
2020/12/11 03:58:31;;;;;;;19.63;12.73;;;2.50;99.90;;;;;;4172398;28;20053;-68
2020/12/11 04:00:31;;;;;;;20.98;12.88;;;2.60;99.90;;;;;;4161020;28;20088;-69
2020/12/11 04:02:35;;;;;;;21.20;12.50;;;2.60;99.90;;;;;;4177592;28;20099;-68
2020/12/11 04:04:35;;;;;;;19.35;11.75;;;2.60;99.90;;;;;;4171238;28;20038;-69
2020/12/11 04:06:36;;;;;;;17.75;11.98;;;2.60;99.90;;;;;;4167898;28;20033;-69
2020/12/11 04:08:38;;;;;;;20.42;12.75;;;2.60;99.90;;;;;;4170972;28;20033;-68
2020/12/11 04:10:40;;;;;;;19.17;12.00;;;2.60;99.90;;;;;;4163408;28;20447;-69
2020/12/11 04:12:40;;;;;;;20.30;12.32;;;2.60;99.90;;;;;;4170563;28;20026;-69
2020/12/11 04:14:41;;;;;;;24.42;12.25;;;2.60;99.90;;;;;;4169054;28;20022;-69
2020/12/11 04:16:41;;;;;;;21.05;13.27;;;2.60;99.90;;;;;;4165373;28;20504;-69
2020/12/11 04:18:42;;;;;;;21.20;13.02;;;2.60;99.90;;;;;;4167853;28;20064;-68
2020/12/11 04:20:43;;;;;;;20.65;12.73;;;2.60;99.90;;;;;;4159144;28;20061;-69
2020/12/11 04:22:43;;;;;;;20.75;12.20;;;2.60;99.90;;;;;;4167880;28;20057;-69
2020/12/11 04:24:44;;;;;;;17.95;11.95;;;2.70;99.90;;;;;;4171220;28;20413;-68
2020/12/11 04:26:44;;;;;;;20.35;12.40;;;2.70;99.90;;;;;;4167779;28;20051;-69
2020/12/11 04:28:45;;;;;;;18.35;12.30;;;2.70;99.90;;;;;;4166862;28;20038;-69
2020/12/11 04:30:49;;;;;;;19.33;11.73;;;2.70;99.90;;;;;;4160648;28;20112;-69
2020/12/11 04:32:50;;;;;;;19.50;12.80;;;2.70;99.90;;;;;;4167008;28;20036;-69
2020/12/11 04:34:50;;;;;;;16.58;11.65;;;2.70;99.90;;;;;;4174911;28;20025;-69
2020/12/11 04:36:52;;;;;;;19.77;12.27;;;2.70;99.90;;;;;;4163310;28;20044;-69
2020/12/11 04:38:53;;;;;;;19.13;12.10;;;2.70;99.90;;;;;;4173729;28;20032;-68
2020/12/11 04:40:59;;;;;;;18.10;11.73;;;2.60;99.90;;;;;;4169249;28;20103;-68
2020/12/11 04:43:00;;;;;;;18.95;12.45;;;2.60;99.90;;;;;;4164729;28;20144;-68
2020/12/11 04:45:00;;;;;;;19.58;11.43;;;2.60;99.90;;;;;;4176759;28;20120;-68
2020/12/11 04:47:07;;;;;;;17.83;11.63;;;2.60;99.90;;;;;;4160764;28;20489;-68
2020/12/11 04:49:08;;;;;;;18.60;11.98;;;2.60;99.90;;;;;;4168409;28;20154;-68
2020/12/11 04:51:09;;;;;;;17.70;10.93;;;2.60;99.90;;;;;;4167069;28;20482;-69
2020/12/11 04:53:15;;;;;;;16.92;11.30;;;2.60;99.90;;;;;;4169302;28;20255;-69
2020/12/11 04:55:18;;;;;;;20.05;11.18;;;2.60;99.90;;;;;;4174678;28;20041;-68
2020/12/11 04:57:25;;;;;;;18.13;10.88;;;2.60;99.90;;;;;;4158174;28;20436;-69
2020/12/11 04:59:26;;;;;;;19.50;12.38;;;2.60;99.90;;;;;;4171497;28;20155;-69
2020/12/11 05:01:28;;;;;;;18.52;11.50;;;2.60;99.90;;;;;;4161861;28;20029;-69
2020/12/11 05:03:32;;;;;;;;;;;2.50;99.90;;;;;;4167076;28;20137;-69
2020/12/11 05:05:32;;;;;;;19.48;11.90;;;2.50;99.90;;;;;;4169786;28;19984;-69
2020/12/11 05:07:33;;;;;;;18.77;11.98;;;2.50;99.90;;;;;;4167026;28;20056;-68
2020/12/11 05:09:34;;;;;;;19.38;12.30;;;2.50;99.90;;;;;;4177034;28;20035;-69
2020/12/11 05:11:35;;;;;;;20.42;12.43;;;2.50;99.90;;;;;;4163176;28;20120;-69
2020/12/11 05:13:41;;;;;;;20.35;12.68;;;2.50;99.90;;;;;;4170320;28;20041;-68
2020/12/11 05:15:41;;;;;;;17.40;11.35;;;2.40;99.90;;;;;;4166347;28;20412;-68
2020/12/11 05:17:42;;;;;;;20.40;13.20;;;2.40;99.90;;;;;;4164641;28;20112;-68
2020/12/11 05:19:51;;;;;;;20.00;12.35;;;2.50;99.90;;;;;;4175223;28;20064;-68
2020/12/11 05:21:52;;;;;;;18.73;12.38;;;2.50;99.90;;;;;;4159587;28;20078;-69
2020/12/11 05:24:04;;;;;;;18.85;11.98;;;2.40;99.90;;;;;;4176418;28;20072;-68
2020/12/11 05:26:19;;;;;;;19.58;12.10;;;2.40;99.90;;;;;;4166474;28;20572;-68
2020/12/11 05:28:20;;;;;;;19.13;11.55;;;2.50;99.90;;;;;;4162473;28;20037;-68
2020/12/11 05:30:22;;;;;;;17.92;11.88;;;2.50;99.90;;;;;;4168102;28;20483;-68
2020/12/11 05:32:41;;;;;;;19.48;12.30;;;2.50;99.90;;;;;;4154879;28;20087;-68
2020/12/11 05:34:42;;;;;;;19.65;12.10;;;2.40;99.90;;;;;;4141055;28;20045;-68
2020/12/11 05:36:54;;;;;;;17.85;11.32;;;2.40;99.90;;;;;;4159287;28;20035;-68
2020/12/11 05:38:54;;;;;;;21.63;12.93;;;2.40;99.90;;;;;;4145226;28;20030;-68
2020/12/11 05:40:55;;;;;;;20.20;12.02;;;2.40;99.90;;;;;;4164914;28;20040;-68
2020/12/11 05:43:17;;;;;;;20.77;12.15;;;2.40;99.90;;;;;;4156198;28;20305;-69
2020/12/11 05:45:18;;;;;;;17.55;11.02;;;2.40;99.90;;;;;;4161465;28;20045;-69
2020/12/11 05:47:23;;;;;;;20.05;11.80;;;2.40;99.90;;;;;;4171095;28;20386;-69
2020/12/11 05:49:33;;;;;;;17.58;11.75;;;2.40;99.90;;;;;;4159724;28;20099;-68
2020/12/11 05:51:35;;;;;;;21.90;11.98;;;2.40;99.90;;;;;;4161916;28;20542;-69
2020/12/11 05:53:37;;;;;;;22.07;12.63;;;2.40;99.90;;;;;;4169997;28;20086;-68
2020/12/11 05:55:40;;;;;;;18.52;12.70;;;2.40;99.90;;;;;;4167519;28;20322;-69
2020/12/11 05:57:41;;;;;;;19.65;11.88;;;2.40;99.90;;;;;;4171253;28;20099;-68
2020/12/11 05:59:43;;;;;;;18.63;11.60;;;2.40;99.90;;;;;;4169929;28;20438;-69
2020/12/11 06:01:46;;;;;;;19.50;12.35;;;2.40;99.90;;;;;;4160227;28;20045;-68
2020/12/11 06:03:47;;;;;;;20.67;12.05;;;2.40;99.90;;;;;;4162712;28;20041;-68
2020/12/11 06:05:50;;;;;;;16.83;11.38;;;2.40;99.90;;;;;;4171477;28;20051;-68
2020/12/11 06:07:52;;;;;;;19.63;12.05;;;2.50;99.90;;;;;;4166782;28;20087;-68
2020/12/11 06:09:57;;;;;;;21.17;12.88;;;2.40;99.90;;;;;;4159450;28;20068;-69
2020/12/11 06:11:59;;;;;;;20.45;13.00;;;2.50;99.90;;;;;;4159688;28;20163;-69
2020/12/11 06:14:08;;;;;;;22.90;13.20;;;2.50;99.90;;;;;;4170674;28;20055;-68
2020/12/11 06:16:11;;;;;;;18.45;11.70;;;2.50;99.90;;;;;;4166955;28;20033;-68
2020/12/11 06:18:19;;;;;;;19.08;12.02;;;2.50;99.90;;;;;;4164028;28;20037;-69
2020/12/11 06:20:25;;;;;;;19.75;12.63;;;2.50;99.90;;;;;;4164975;28;20828;-69
2020/12/11 06:22:25;;;;;;;19.40;12.27;;;2.50;99.90;;;;;;4157266;28;20044;-69
2020/12/11 06:24:27;;;;;;;21.00;13.13;;;2.50;99.90;;;;;;4150089;28;20065;-68
2020/12/11 06:26:28;;;;;;;19.13;12.70;;;2.50;99.90;;;;;;4161512;28;20048;-69
2020/12/11 06:28:35;;;;;;;21.10;12.90;;;2.60;99.90;;;;;;4158304;28;20033;-70
2020/12/11 06:30:36;;;;;;;21.88;12.65;;;2.60;99.90;;;;;;4155502;28;20508;-70
2020/12/11 06:32:37;;;;;;;22.80;12.87;;;2.60;99.90;;;;;;4158136;28;20091;-70
2020/12/11 06:34:38;;;;;;;19.33;12.20;;;2.50;99.90;;;;;;4155230;28;20033;-70
2020/12/11 06:36:44;;;;;;;22.05;12.55;;;2.60;99.90;;;;;;4158597;28;20029;-70
2020/12/11 06:38:56;;;;;;;21.70;13.95;;;2.60;99.90;;;;;;4159458;28;20030;-70
2020/12/11 06:40:57;;;;;;;20.27;12.18;;;2.60;99.90;;;;;;4152277;28;20099;-70
2020/12/11 06:42:58;;;;;;;20.17;12.48;;;2.50;99.90;;;;;;4157528;28;20033;-70
2020/12/11 06:45:15;;;;;;;21.15;13.30;;;2.60;99.90;;;;;;4157354;28;20099;-70
2020/12/11 06:47:18;;;;;;;22.50;14.18;;;2.60;99.90;;;;;;4155322;28;20048;-70
2020/12/11 06:49:21;;;;;;;19.65;12.13;;;2.60;99.90;;;;;;4162651;28;20033;-70
2020/12/11 06:51:22;;;;;;;21.10;12.93;;;2.60;99.90;;;;;;4156879;28;20132;-70
2020/12/11 06:53:41;;;;;;;21.88;12.25;;;2.60;99.90;;;;;;4157124;28;20506;-70
2020/12/11 06:55:49;;;;;;;19.92;12.27;;;2.50;99.90;;;;;;4156693;28;20036;-70
2020/12/11 06:57:50;;;;;;;17.33;10.52;;;2.50;99.90;;;;;;4156105;28;20037;-70
2020/12/11 06:59:50;;;;;;;18.85;11.93;;;2.50;99.90;;;;;;4151801;28;20037;-70
2020/12/11 07:02:17;;;;;;;19.85;12.32;;;2.50;99.90;;;;;;4129836;28;20478;-70
2020/12/11 07:04:18;;;;;;;21.48;12.43;;;2.60;99.90;;;;;;4157746;28;20029;-70
2020/12/11 07:06:20;;;;;;;20.02;12.43;;;2.60;99.90;;;;;;4158203;28;20548;-70
2020/12/11 07:08:21;;;;;;;17.20;11.23;;;2.60;99.90;;;;;;4158873;28;20030;-72
2020/12/11 07:10:26;;;;;;;17.45;11.63;;;2.60;99.90;;;;;;4160480;28;20490;-72
2020/12/11 07:12:32;;;;;;;19.38;11.75;;;2.60;99.90;;;;;;4141796;28;20033;-72
2020/12/11 07:14:33;;;;;;;21.52;12.20;;;2.60;99.90;;;;;;4153695;28;20040;-72
2020/12/11 07:16:40;;;;;;;21.60;12.57;;;2.70;99.90;;;;;;4160246;28;20431;-72
2020/12/11 07:18:41;;;;;;;18.55;11.32;;;2.60;99.90;;;;;;4157669;28;20029;-72
2020/12/11 07:20:50;;;;;;;20.02;12.60;;;2.60;99.90;;;;;;4158205;28;20099;-72
2020/12/11 07:22:54;;;;;;;20.70;12.20;;;2.60;99.90;;;;;;4154888;28;20034;-72
2020/12/11 07:24:55;;;;;;;18.33;11.77;;;2.60;99.90;;;;;;4154893;28;20480;-72
2020/12/11 07:27:04;;;;;;;19.85;12.35;;;2.60;99.90;;;;;;4157854;28;20461;-72
2020/12/11 07:29:10;;;;;;;17.85;11.30;;;2.60;99.90;;;;;;4160501;28;20034;-72
2020/12/11 07:31:12;;;;;;;20.25;12.73;;;2.70;99.90;;;;;;4160182;28;20431;-72
2020/12/11 07:33:13;;;;;;;18.10;11.97;;;2.70;99.90;;;;;;4161229;28;20099;-72
2020/12/11 07:35:14;;;;;;;18.83;12.65;;;2.70;99.90;;;;;;4160964;28;20263;-72
2020/12/11 07:37:15;;;;;;;20.90;12.95;;;2.70;99.90;;;;;;4162669;28;20059;-72
2020/12/11 07:39:18;;;;;;;21.27;12.48;;;2.70;99.90;;;;;;4159543;28;20038;-72
2020/12/11 07:41:20;;;;;;;20.02;12.30;;;2.80;99.90;;;;;;4161471;28;20106;-72
2020/12/11 07:43:21;;;;;;;21.55;13.75;;;2.80;99.90;;;;;;4161748;28;20025;-72
2020/12/11 07:45:24;;;;;;;21.70;13.23;;;2.70;99.90;;;;;;4156983;28;20041;-72
2020/12/11 07:47:26;;;;;;;19.83;11.77;;;2.80;99.90;;;;;;4158266;28;20037;-72
2020/12/11 07:49:40;;;;;;;;;;;2.80;99.90;;;;;;4162181;28;20044;-72
2020/12/11 07:51:51;;;;;;;22.92;12.68;;;2.80;99.90;;;;;;4163448;28;20416;-72
2020/12/11 07:53:52;;;;;;;21.55;12.60;;;2.80;99.90;;;;;;4160278;28;20029;-72
2020/12/11 07:55:53;;;;;;;19.73;11.57;;;2.80;99.90;;;;;;4158617;28;20044;-72
2020/12/11 07:57:56;;;;;;;20.15;11.82;;;2.80;99.90;;;;;;4167919;28;20276;-72
2020/12/11 07:59:57;;;;;;;;;;;2.90;99.90;;;;;;4163935;28;20037;-72
2020/12/11 08:01:58;;;;;;;18.95;11.82;;;2.90;99.90;;;;;;4158874;28;19921;-72
2020/12/11 08:03:59;;;;;;;20.02;12.38;;;2.90;99.90;;;;;;4160082;28;20041;-72
2020/12/11 08:06:00;;;;;;;23.55;12.40;;;2.90;99.90;;;;;;4160827;28;20032;-72
2020/12/11 08:08:02;;;;;;;19.52;11.68;;;2.90;99.90;;;;;;4164753;28;20041;-72
2020/12/11 08:10:18;;;;;;;19.42;11.93;;;3.00;99.90;;;;;;4168519;28;20464;-72
2020/12/11 08:12:21;;;;;;;19.65;12.02;;;3.00;99.90;;;;;;4160679;28;20042;-72
2020/12/11 08:14:22;;;;;;;19.75;12.23;;;3.00;99.90;;;;;;4160689;28;20034;-72
2020/12/11 08:16:23;;;;;;;19.52;11.95;;;3.00;99.90;;;;;;4163062;28;20107;-72
2020/12/11 08:18:29;;;;;;;18.08;11.00;;;3.00;99.90;;;;;;4165194;28;20061;-72
2020/12/11 08:20:51;;;;;;;19.20;11.80;;;3.00;99.90;;;;;;4164686;28;20040;-72
2020/12/11 08:22:52;;;;;;;19.77;11.73;;;3.10;99.90;;;;;;4169547;28;20041;-72
2020/12/11 08:24:52;;;;;;;18.25;11.75;;;3.10;99.90;;;;;;4165743;28;20118;-72
2020/12/11 08:26:53;;;;;;;21.50;11.82;;;3.10;99.90;;;;;;4164973;28;20452;-72
2020/12/11 08:29:08;;;;;;;17.83;11.48;;;3.10;99.90;;;;;;4165906;28;20369;-72
2020/12/11 08:31:20;;;;;;;19.42;12.13;;;3.20;99.90;;;;;;4167235;28;20033;-72
2020/12/11 08:33:24;;;;;;;16.92;10.70;;;3.20;99.90;;;;;;4163113;28;20042;-72
2020/12/11 08:35:25;;;;;;;17.77;11.85;;;3.20;99.90;;;;;;4160182;28;20025;-72
2020/12/11 08:37:25;;;;;;;20.55;12.02;;;3.20;99.90;;;;;;4164245;28;20546;-72
2020/12/11 08:39:28;;;;;;;17.67;11.10;;;3.20;99.90;;;;;;4158824;28;20029;-72
2020/12/11 08:41:30;;;;;;;16.75;10.85;;;3.30;99.90;;;;;;4144082;28;20486;-72
2020/12/11 08:43:42;;;;;;;20.98;12.00;;;3.30;99.90;;;;;;4167316;28;20037;-72
2020/12/11 08:50:42;;;;;;;17.25;10.65;;;3.40;99.90;;;;;;4151619;28;20560;-72
2020/12/11 08:52:43;;;;;;;16.17;10.95;;;3.40;99.90;;;;;;4165537;28;20034;-72
2020/12/11 08:54:44;;;;;;;18.38;12.02;;;3.40;99.90;;;;;;4163158;28;20095;-72
2020/12/11 08:56:45;;;;;;;17.90;11.48;;;3.50;99.90;;;;;;4162915;28;20036;-72
2020/12/11 08:58:45;;;;;;;16.55;10.98;;;3.50;99.90;;;;;;4167013;28;21877;-72
2020/12/11 09:00:47;;;;;;;16.52;11.35;;;3.50;99.90;;;;;;4143389;28;20045;-71
2020/12/11 09:02:48;;;;;;;15.18;10.30;;;3.60;99.90;;;;;;4162746;28;20500;-72
2020/12/11 09:04:48;;;;;;;17.67;11.90;;;3.50;99.90;;;;;;4160948;28;20037;-72
2020/12/11 09:06:49;;;;;;;18.13;11.35;;;3.60;99.90;;;;;;4165327;28;20122;-72
2020/12/11 09:08:49;;;;;;;24.08;11.30;;;3.60;99.90;;;;;;4163693;28;20024;-72
2020/12/11 09:10:50;;;;;;;18.05;10.77;;;3.70;99.90;;;;;;4161989;28;20065;-71
2020/12/11 09:12:53;;;;;;;15.82;11.07;;;3.70;99.90;;;;;;4167501;28;20021;-72
2020/12/11 09:14:53;;;;;;;;;;;3.70;99.90;;;;;;4163876;28;20033;-71
2020/12/11 09:16:55;;;;;;;16.25;10.10;;;3.70;99.90;;;;;;4163218;28;19995;-71
2020/12/11 09:18:55;;;;;;;16.48;11.45;;;3.70;99.90;;;;;;4150292;28;20040;-72
2020/12/11 09:20:57;;;;;;;19.08;11.25;;;3.80;99.90;;;;;;4151901;28;20038;-71
2020/12/11 09:22:58;;;;;;;18.35;11.38;;;3.80;99.90;;;;;;4158213;28;20112;-71
2020/12/11 09:24:59;;;;;;;19.05;11.30;;;3.80;99.90;;;;;;4160171;28;20488;-71
2020/12/11 09:27:00;;;;;;;18.00;10.35;;;3.80;99.90;;;;;;4158346;28;20390;-71
2020/12/11 09:29:47;;;;;;;15.48;9.73;;;3.80;99.90;;;;;;4161045;28;20041;-71
2020/12/11 09:31:23;;;;;;;16.85;10.05;;;3.80;99.90;;;;;;4161649;28;20503;-71
2020/12/11 09:33:26;;;;;;;17.58;10.77;;;3.80;99.90;;;;;;4164598;28;20530;-72
2020/12/11 09:35:28;;;;;;;14.70;10.35;;;3.90;99.90;;;;;;4165586;28;20288;-71
2020/12/11 09:37:28;;;;;;;16.00;10.48;;;3.90;99.90;;;;;;4164168;28;20156;-72
2020/12/11 09:39:29;;;;;;;16.65;10.90;;;3.90;99.90;;;;;;4160241;28;20032;-72
2020/12/11 09:41:33;;;;;;;15.48;10.18;;;3.90;99.90;;;;;;4156267;28;20104;-72
2020/12/11 09:46:06;;;;;;;18.83;11.65;;;4.00;99.90;;;;;;4162063;28;20049;-72
2020/12/11 09:50:33;;;;;;;15.48;10.73;;;4.00;99.90;;;;;;4166366;28;20033;-71
2020/12/11 09:54:49;;;;;;;16.08;10.82;;;4.00;99.90;;;;;;4160542;28;20516;-72
2020/12/11 09:56:50;;;;;;;15.55;10.00;;;4.00;99.90;;;;;;4153436;28;20048;-72
2020/12/11 09:58:54;;;;;;;16.83;11.15;;;4.10;99.90;;;;;;4161817;28;20048;-72
2020/12/11 10:00:55;;;;;;;18.55;10.77;;;4.10;99.90;;;;;;4163958;28;20459;-72
2020/12/11 10:03:00;;;;;;;15.48;10.07;;;4.10;99.90;;;;;;4140879;28;580574;-72
2020/12/11 10:05:01;;;;;;;15.15;9.52;;;4.10;99.90;;;;;;4159315;28;20038;-72
2020/12/11 10:07:02;;;;;;;17.52;10.85;;;4.20;99.90;;;;;;4165727;28;20060;-72
2020/12/11 10:09:03;;;;;;;21.10;11.27;;;4.10;99.90;;;;;;4160562;28;20029;-72
2020/12/11 10:11:03;;;;;;;16.85;11.57;;;4.10;99.90;;;;;;4164712;28;20037;-72
2020/12/11 10:13:05;;;;;;;16.48;10.32;;;4.10;99.90;;;;;;4163879;28;20025;-72
2020/12/11 10:15:08;;;;;;;13.90;9.98;;;4.10;99.90;;;;;;4162877;28;20033;-72
2020/12/11 10:17:14;;;;;;;15.00;9.85;;;4.10;99.90;;;;;;4160470;28;20067;-72
2020/12/11 10:19:14;;;;;;;14.98;10.65;;;4.10;99.90;;;;;;4162464;28;20053;-72
2020/12/11 10:21:15;;;;;;;15.82;10.50;;;4.10;99.90;;;;;;4163922;28;20512;-72
2020/12/11 10:23:15;;;;;;;17.73;10.63;;;4.10;99.90;;;;;;4162073;28;20122;-72
2020/12/11 10:25:17;;;;;;;15.32;10.30;;;4.10;99.90;;;;;;4161308;28;22256;-72
2020/12/11 10:27:18;;;;;;;18.15;10.25;;;4.10;99.90;;;;;;4160688;28;20509;-72
2020/12/11 10:29:19;;;;;;;14.25;9.95;;;4.10;99.90;;;;;;4164556;28;20068;-72
2020/12/11 10:31:19;;;;;;;15.60;9.77;;;4.10;99.90;;;;;;4165906;28;20416;-73
2020/12/11 10:33:20;;;;;;;13.63;9.82;;;4.20;99.90;;;;;;4167743;28;20037;-72
2020/12/11 10:35:21;;;;;;;16.50;10.77;;;4.20;99.90;;;;;;4167951;28;20517;-72
2020/12/11 10:37:22;;;;;;;18.95;9.95;;;4.20;99.90;;;;;;4163581;28;20033;-72
2020/12/11 10:39:22;;;;;;;13.75;9.18;;;4.20;99.90;;;;;;4163314;28;20397;-72
2020/12/11 10:41:23;;;;;;;17.10;10.15;;;4.20;99.90;;;;;;4163165;28;20033;-72
2020/12/11 10:43:24;;;;;;;15.43;10.50;;;4.20;99.90;;;;;;4164225;28;20397;-72